Time;durP1;ratioP1;P1;durP2;ratioP2;P2;SDS_P1;SDS_P2;PMS_P1;PMS_P2;Temp;Humidity;BMP_temperature;BMP_pressure;BME280_temperature;BME280_humidity;BME280_pressure;Samples;Min_cycle;Max_cycle;Signal;HPM_P1;HPM_P2
2022/06/27 00:01:03;;;;;;;10.50;4.57;;;;;;;;;;5082476;28;20064;-75
2022/06/27 00:03:31;;;;;;;6.95;4.85;;;;;;;;;;5084713;28;20048;-74
2022/06/27 00:05:57;;;;;;;11.02;5.72;;;;;;;;;;5085184;28;20036;-74
2022/06/27 00:08:23;;;;;;;8.52;5.43;;;;;;;;;;5083764;28;20046;-75
2022/06/27 00:10:50;;;;;;;7.55;4.70;;;;;;;;;;5062431;28;20096;-75
2022/06/27 00:13:16;;;;;;;6.57;4.82;;;;;;;;;;5090574;28;20036;-75
2022/06/27 00:15:42;;;;;;;6.70;5.00;;;;;;;;;;5090612;28;20039;-75
2022/06/27 00:18:08;;;;;;;8.00;4.78;;;;;;;;;;5093163;28;20123;-75
2022/06/27 00:20:34;;;;;;;17.30;8.07;;;;;;;;;;5091083;28;20134;-74
2022/06/27 00:23:00;;;;;;;8.63;5.80;;;;;;;;;;5091789;28;20090;-74
2022/06/27 00:25:26;;;;;;;7.35;5.68;;;;;;;;;;5093213;28;20514;-74
2022/06/27 00:27:53;;;;;;;7.50;4.90;;;;;;;;;;5083573;28;20460;-74
2022/06/27 00:30:19;;;;;;;7.00;5.40;;;;;;;;;;5089034;28;20474;-74
2022/06/27 00:32:45;;;;;;;11.57;5.57;;;;;;;;;;5085991;28;20516;-74
2022/06/27 00:35:12;;;;;;;10.45;5.80;;;;;;;;;;5092531;28;20047;-74
2022/06/27 00:37:38;;;;;;;7.65;5.50;;;;;;;;;;5101066;28;20438;-74
2022/06/27 00:40:05;;;;;;;9.60;5.88;;;;;;;;;;5089798;28;20090;-74
2022/06/27 00:42:31;;;;;;;8.77;5.32;;;;;;;;;;5084082;28;20086;-75
2022/06/27 00:44:57;;;;;;;6.22;4.97;;;;;;;;;;5086264;28;20074;-74
2022/06/27 00:47:23;;;;;;;6.65;5.20;;;;;;;;;;5092025;28;20355;-74
2022/06/27 00:49:50;;;;;;;20.08;5.68;;;;;;;;;;5098749;28;20043;-74
2022/06/27 00:52:16;;;;;;;7.40;5.30;;;;;;;;;;5088584;28;20150;-75
2022/06/27 00:54:43;;;;;;;7.43;5.47;;;;;;;;;;5088522;28;20352;-74
2022/06/27 00:57:11;;;;;;;13.07;6.85;;;;;;;;;;5097590;28;20043;-75
2022/06/27 00:59:37;;;;;;;6.53;5.43;;;;;;;;;;5080973;28;20490;-75
2022/06/27 01:02:04;;;;;;;10.68;7.03;;;;;;;;;;5078771;28;20091;-75
2022/06/27 01:04:30;;;;;;;7.95;5.72;;;;;;;;;;5093928;28;20545;-75
2022/06/27 01:06:57;;;;;;;8.52;5.70;;;;;;;;;;5086347;28;20059;-76
2022/06/27 01:09:23;;;;;;;6.43;5.68;;;;;;;;;;5083747;28;20044;-74
2022/06/27 01:11:50;;;;;;;8.73;6.45;;;;;;;;;;5096704;28;20394;-75
2022/06/27 01:14:16;;;;;;;11.10;6.32;;;;;;;;;;5094785;28;20029;-74
2022/06/27 01:16:52;;;;;;;8.05;6.50;;;;;;;;;;5096768;28;20035;-75
2022/06/27 01:19:19;;;;;;;7.53;5.95;;;;;;;;;;5092428;28;20032;-76
2022/06/27 01:21:46;;;;;;;6.72;5.38;;;;;;;;;;5083505;28;20066;-75
2022/06/27 01:24:12;;;;;;;8.23;6.38;;;;;;;;;;5087273;28;20498;-75
2022/06/27 01:26:38;;;;;;;7.35;6.15;;;;;;;;;;5086247;28;20040;-75
2022/06/27 01:29:05;;;;;;;8.30;6.57;;;;;;;;;;5082979;28;20417;-75
2022/06/27 01:31:31;;;;;;;7.88;7.07;;;;;;;;;;5096196;28;20533;-74
2022/06/27 01:33:57;;;;;;;8.30;6.28;;;;;;;;;;5080998;28;20473;-74
2022/06/27 01:36:41;;;;;;;11.45;5.97;;;;;;;;;;5097123;28;20516;-75
2022/06/27 01:39:09;;;;;;;8.73;6.20;;;;;;;;;;5098910;28;20130;-75
2022/06/27 01:41:35;;;;;;;8.38;6.55;;;;;;;;;;5094645;28;20152;-75
2022/06/27 01:44:02;;;;;;;9.48;6.30;;;;;;;;;;5077480;28;20036;-75
2022/06/27 01:46:45;;;;;;;8.43;7.25;;;;;;;;;;5090061;28;20483;-75
2022/06/27 01:49:11;;;;;;;;;;;;;;;;;;5081495;28;20072;-75
2022/06/27 01:51:38;;;;;;;7.70;5.63;;;;;;;;;;5091991;28;20387;-75
2022/06/27 01:54:04;;;;;;;7.85;5.97;;;;;;;;;;5085639;28;20509;-75
2022/06/27 01:56:31;;;;;;;7.82;5.28;;;;;;;;;;5099218;28;20085;-74
2022/06/27 01:59:00;;;;;;;7.63;5.07;;;;;;;;;;5100201;28;20407;-75
2022/06/27 02:01:26;;;;;;;6.55;5.10;;;;;;;;;;5083662;28;20048;-75
2022/06/27 02:03:53;;;;;;;8.07;5.95;;;;;;;;;;5093405;28;20044;-75
2022/06/27 02:06:19;;;;;;;7.55;5.55;;;;;;;;;;5082455;28;20032;-75
2022/06/27 02:08:46;;;;;;;6.18;4.85;;;;;;;;;;5085371;28;20035;-75
2022/06/27 02:11:16;;;;;;;6.05;4.80;;;;;;;;;;5080023;28;20040;-75
2022/06/27 02:13:42;;;;;;;10.30;5.25;;;;;;;;;;5086326;28;20036;-75
2022/06/27 02:16:13;;;;;;;10.20;5.53;;;;;;;;;;5095348;28;20041;-75
2022/06/27 02:18:40;;;;;;;6.25;5.07;;;;;;;;;;5088958;28;20058;-75
2022/06/27 02:21:14;;;;;;;6.95;4.90;;;;;;;;;;5087277;28;20119;-75
2022/06/27 02:23:40;;;;;;;7.82;6.10;;;;;;;;;;5085122;28;20198;-75
2022/06/27 02:26:07;;;;;;;7.40;5.30;;;;;;;;;;5090619;28;20070;-75
2022/06/27 02:28:34;;;;;;;8.52;6.30;;;;;;;;;;5094606;28;20509;-75
2022/06/27 02:31:00;;;;;;;13.20;6.60;;;;;;;;;;5092125;28;20117;-75
2022/06/27 02:33:37;;;;;;;7.80;6.03;;;;;;;;;;5094129;28;20482;-75
2022/06/27 02:36:04;;;;;;;11.27;7.65;;;;;;;;;;5083588;28;20478;-75
2022/06/27 02:38:30;;;;;;;7.85;5.95;;;;;;;;;;5091094;28;20046;-75
2022/06/27 02:40:58;;;;;;;9.73;6.72;;;;;;;;;;5095643;28;20044;-75
2022/06/27 02:43:25;;;;;;;9.32;6.18;;;;;;;;;;5093245;28;20040;-75
2022/06/27 02:45:52;;;;;;;7.68;6.57;;;;;;;;;;5089510;28;20036;-75
2022/06/27 02:48:18;;;;;;;9.68;7.15;;;;;;;;;;5085016;28;20390;-74
2022/06/27 02:50:46;;;;;;;7.80;6.30;;;;;;;;;;5075392;28;20076;-74
2022/06/27 02:53:15;;;;;;;9.10;6.10;;;;;;;;;;5080325;28;20083;-74
2022/06/27 02:55:41;;;;;;;8.48;6.50;;;;;;;;;;5084906;28;20485;-75
2022/06/27 02:58:07;;;;;;;6.82;6.13;;;;;;;;;;5100422;28;20039;-75
2022/06/27 03:00:35;;;;;;;6.80;6.07;;;;;;;;;;5083912;28;20131;-74
2022/06/27 03:03:03;;;;;;;15.60;7.72;;;;;;;;;;5089423;28;20469;-75
2022/06/27 03:05:29;;;;;;;10.85;8.48;;;;;;;;;;5087499;28;20044;-74
2022/06/27 03:07:55;;;;;;;9.43;7.25;;;;;;;;;;5092784;28;20032;-75
2022/06/27 03:10:22;;;;;;;8.73;6.78;;;;;;;;;;5084420;28;20533;-74
2022/06/27 03:12:48;;;;;;;9.88;7.25;;;;;;;;;;5083708;28;20040;-75
2022/06/27 03:15:15;;;;;;;11.10;7.80;;;;;;;;;;5076804;28;20037;-75
2022/06/27 03:17:41;;;;;;;8.82;7.43;;;;;;;;;;5097559;28;20036;-74
2022/06/27 03:20:08;;;;;;;7.85;7.05;;;;;;;;;;5097412;28;20075;-74
2022/06/27 03:22:34;;;;;;;8.73;7.25;;;;;;;;;;5082338;28;20035;-75
2022/06/27 03:25:00;;;;;;;10.50;7.47;;;;;;;;;;5076810;28;20041;-74
2022/06/27 03:27:26;;;;;;;8.98;7.90;;;;;;;;;;5085109;28;20388;-75
2022/06/27 03:29:52;;;;;;;9.02;7.07;;;;;;;;;;5077269;28;20040;-75
2022/06/27 03:32:18;;;;;;;12.00;8.35;;;;;;;;;;5092232;28;20040;-74
2022/06/27 03:34:45;;;;;;;9.27;8.15;;;;;;;;;;5087015;28;20046;-75
2022/06/27 03:37:11;;;;;;;9.27;8.13;;;;;;;;;;5089056;28;20047;-75
2022/06/27 03:39:37;;;;;;;11.27;8.75;;;;;;;;;;5085772;28;20044;-74
2022/06/27 03:42:03;;;;;;;10.95;8.60;;;;;;;;;;5088115;28;20031;-74
2022/06/27 03:44:30;;;;;;;12.07;8.13;;;;;;;;;;5087037;28;20502;-74
2022/06/27 03:46:56;;;;;;;9.00;6.75;;;;;;;;;;5092674;28;20040;-74
2022/06/27 03:52:07;;;;;;;12.20;8.30;;;;;;;;;;5078328;28;20453;-74
2022/06/27 03:54:33;;;;;;;9.10;7.40;;;;;;;;;;5084658;28;20041;-75
2022/06/27 03:56:59;;;;;;;8.10;6.30;;;;;;;;;;5078959;28;20434;-74
2022/06/27 03:59:25;;;;;;;7.43;6.20;;;;;;;;;;5094494;28;20562;-74
2022/06/27 04:01:51;;;;;;;8.98;6.90;;;;;;;;;;5084013;28;20083;-74
2022/06/27 04:04:18;;;;;;;10.85;6.85;;;;;;;;;;5082009;28;20047;-74
2022/06/27 04:06:44;;;;;;;8.35;7.40;;;;;;;;;;5084000;28;20040;-74
2022/06/27 04:09:10;;;;;;;7.93;6.15;;;;;;;;;;5094988;28;20047;-74
2022/06/27 04:11:36;;;;;;;9.13;6.38;;;;;;;;;;5085091;28;20265;-74
2022/06/27 04:14:02;;;;;;;9.23;6.65;;;;;;;;;;5088406;28;20036;-75
2022/06/27 04:16:30;;;;;;;10.52;6.28;;;;;;;;;;5085846;28;20038;-74
2022/06/27 04:18:57;;;;;;;9.88;7.40;;;;;;;;;;5081841;28;20093;-74
2022/06/27 04:21:24;;;;;;;9.80;7.28;;;;;;;;;;5096179;28;20043;-74
2022/06/27 04:23:50;;;;;;;9.75;7.05;;;;;;;;;;5094623;28;20138;-75
2022/06/27 04:26:16;;;;;;;10.05;7.13;;;;;;;;;;5084011;28;20040;-75
2022/06/27 04:28:43;;;;;;;10.32;7.35;;;;;;;;;;5082158;28;20037;-74
2022/06/27 04:31:10;;;;;;;13.10;8.02;;;;;;;;;;5085812;28;20052;-75
2022/06/27 04:33:36;;;;;;;9.10;7.00;;;;;;;;;;5085912;28;20040;-75
2022/06/27 04:36:02;;;;;;;12.38;7.38;;;;;;;;;;5092258;28;20040;-74
2022/06/27 04:38:29;;;;;;;10.90;7.47;;;;;;;;;;5078502;28;20044;-75
2022/06/27 04:40:55;;;;;;;9.70;8.00;;;;;;;;;;5087218;28;20459;-74
2022/06/27 04:43:21;;;;;;;10.90;8.13;;;;;;;;;;5075612;28;20111;-74
2022/06/27 04:45:49;;;;;;;11.88;7.80;;;;;;;;;;5092154;28;20557;-74
2022/06/27 04:48:16;;;;;;;13.32;10.63;;;;;;;;;;5090376;28;20036;-74
2022/06/27 04:50:42;;;;;;;11.38;8.23;;;;;;;;;;5088940;28;20032;-74
2022/06/27 04:53:09;;;;;;;13.45;9.98;;;;;;;;;;5085445;28;20035;-74
2022/06/27 04:55:35;;;;;;;13.13;10.27;;;;;;;;;;5081686;28;20059;-74
2022/06/27 04:58:01;;;;;;;10.00;8.73;;;;;;;;;;5088084;28;20043;-74
2022/06/27 05:00:27;;;;;;;11.50;10.25;;;;;;;;;;5081719;28;20051;-74
2022/06/27 05:02:53;;;;;;;12.23;8.52;;;;;;;;;;5095170;28;20055;-74
2022/06/27 05:05:19;;;;;;;14.57;10.02;;;;;;;;;;5084915;28;20130;-74
2022/06/27 05:07:46;;;;;;;11.32;9.88;;;;;;;;;;5083739;28;20051;-74
2022/06/27 05:10:13;;;;;;;13.13;9.68;;;;;;;;;;5084129;28;20519;-75
2022/06/27 05:12:39;;;;;;;13.98;8.50;;;;;;;;;;5084985;28;20029;-74
2022/06/27 05:15:06;;;;;;;12.25;9.63;;;;;;;;;;5080535;28;20041;-74
2022/06/27 05:17:32;;;;;;;14.75;9.52;;;;;;;;;;5081879;28;20130;-74
2022/06/27 05:19:58;;;;;;;13.32;9.35;;;;;;;;;;5086176;28;20040;-74
2022/06/27 05:22:24;;;;;;;12.80;10.55;;;;;;;;;;5086187;28;20059;-74
2022/06/27 05:24:51;;;;;;;10.68;9.43;;;;;;;;;;5088470;28;20049;-74
2022/06/27 05:27:17;;;;;;;14.18;10.45;;;;;;;;;;5087740;28;20036;-74
2022/06/27 05:29:44;;;;;;;12.50;10.02;;;;;;;;;;5082189;28;20144;-74
2022/06/27 05:32:10;;;;;;;14.68;10.25;;;;;;;;;;5080119;28;20658;-74
2022/06/27 05:34:37;;;;;;;14.25;11.18;;;;;;;;;;5095606;28;20339;-74
2022/06/27 05:37:05;;;;;;;17.35;12.35;;;;;;;;;;5095443;28;20044;-74
2022/06/27 05:39:33;;;;;;;15.40;12.13;;;;;;;;;;5087626;28;20028;-74
2022/06/27 05:41:59;;;;;;;16.70;12.60;;;;;;;;;;5089407;28;20475;-74
2022/06/27 05:44:27;;;;;;;14.48;11.13;;;;;;;;;;5092151;28;20521;-74
2022/06/27 05:46:53;;;;;;;15.90;12.40;;;;;;;;;;5089003;28;20515;-74
2022/06/27 05:49:21;;;;;;;19.42;12.88;;;;;;;;;;5083552;28;20111;-74
2022/06/27 05:51:47;;;;;;;13.35;10.85;;;;;;;;;;5096244;28;20051;-74
2022/06/27 05:54:14;;;;;;;19.83;14.75;;;;;;;;;;5091936;28;20039;-74
2022/06/27 05:56:40;;;;;;;17.65;12.30;;;;;;;;;;5083723;28;20040;-74
2022/06/27 05:59:07;;;;;;;15.35;11.65;;;;;;;;;;5085290;28;20108;-74
2022/06/27 06:01:35;;;;;;;15.82;13.05;;;;;;;;;;5087226;28;20052;-74
2022/06/27 06:04:02;;;;;;;19.75;13.13;;;;;;;;;;5088035;28;20523;-74
2022/06/27 06:06:28;;;;;;;17.08;12.45;;;;;;;;;;5090050;28;20044;-74
2022/06/27 06:08:55;;;;;;;18.02;13.10;;;;;;;;;;5087161;28;20032;-74
2022/06/27 06:11:21;;;;;;;16.85;13.18;;;;;;;;;;5080181;28;20040;-74
2022/06/27 06:13:48;;;;;;;17.10;12.93;;;;;;;;;;5091196;28;20050;-74
2022/06/27 06:16:16;;;;;;;18.40;13.05;;;;;;;;;;5094014;28;20489;-74
2022/06/27 06:18:43;;;;;;;22.38;13.93;;;;;;;;;;5086679;28;20119;-74
2022/06/27 06:21:09;;;;;;;16.92;14.02;;;;;;;;;;5086764;28;20040;-74
2022/06/27 06:23:36;;;;;;;12.95;11.18;;;;;;;;;;5086436;28;20074;-74
2022/06/27 06:26:04;;;;;;;16.83;14.23;;;;;;;;;;5081602;28;20032;-74
2022/06/27 06:28:30;;;;;;;17.85;13.88;;;;;;;;;;5088163;28;20036;-74
2022/06/27 06:30:56;;;;;;;18.25;14.95;;;;;;;;;;5079985;28;20036;-74
2022/06/27 06:33:23;;;;;;;14.65;12.57;;;;;;;;;;5083763;28;20044;-74
2022/06/27 06:35:49;;;;;;;17.45;13.52;;;;;;;;;;5089478;28;20127;-74
2022/06/27 06:38:15;;;;;;;19.08;14.50;;;;;;;;;;5088001;28;20040;-75
2022/06/27 06:40:42;;;;;;;17.90;14.50;;;;;;;;;;5095016;28;20444;-74
2022/06/27 06:43:08;;;;;;;17.67;13.23;;;;;;;;;;5078926;28;20065;-74
2022/06/27 06:45:34;;;;;;;15.95;12.60;;;;;;;;;;5089797;28;20036;-74
2022/06/27 06:48:02;;;;;;;17.10;13.60;;;;;;;;;;5085416;28;20040;-75
2022/06/27 06:50:28;;;;;;;16.95;13.88;;;;;;;;;;5080999;28;20033;-74
2022/06/27 06:52:54;;;;;;;15.45;12.95;;;;;;;;;;5088344;28;20050;-74
2022/06/27 06:55:25;;;;;;;17.30;14.27;;;;;;;;;;5089677;28;20051;-74
2022/06/27 06:57:51;;;;;;;19.08;15.95;;;;;;;;;;5087597;28;20098;-74
2022/06/27 07:00:19;;;;;;;17.58;14.40;;;;;;;;;;5083948;28;20108;-74
2022/06/27 07:02:46;;;;;;;16.58;13.98;;;;;;;;;;5077040;28;20053;-74
2022/06/27 07:05:12;;;;;;;15.75;12.88;;;;;;;;;;5079219;28;20615;-73
2022/06/27 07:07:42;;;;;;;19.63;14.10;;;;;;;;;;5080737;28;20036;-74
2022/06/27 07:10:09;;;;;;;15.57;13.25;;;;;;;;;;5092801;28;20048;-74
2022/06/27 07:12:38;;;;;;;15.07;12.73;;;;;;;;;;5089811;28;20120;-74
2022/06/27 07:15:09;;;;;;;16.20;12.55;;;;;;;;;;5073529;28;20356;-75
2022/06/27 07:17:49;;;;;;;21.58;15.98;;;;;;;;;;5088244;28;20577;-75
2022/06/27 07:20:19;;;;;;;13.80;12.30;;;;;;;;;;5095407;28;20053;-74
2022/06/27 07:22:45;;;;;;;17.83;13.68;;;;;;;;;;5080605;28;20174;-74
2022/06/27 07:25:12;;;;;;;18.17;13.45;;;;;;;;;;5083644;28;20044;-74
2022/06/27 07:27:39;;;;;;;17.90;14.50;;;;;;;;;;5088220;28;20524;-74
2022/06/27 07:30:09;;;;;;;17.67;13.77;;;;;;;;;;5089142;28;20535;-75
2022/06/27 07:32:36;;;;;;;21.40;15.15;;;;;;;;;;5092131;28;20050;-74
2022/06/27 07:35:03;;;;;;;18.83;14.38;;;;;;;;;;5087635;28;20488;-75
2022/06/27 07:37:29;;;;;;;17.50;13.50;;;;;;;;;;5088432;28;20042;-75
2022/06/27 07:39:55;;;;;;;17.63;14.07;;;;;;;;;;5083202;28;20040;-74
2022/06/27 07:42:22;;;;;;;20.92;14.48;;;;;;;;;;5085550;28;20501;-74
2022/06/27 07:44:49;;;;;;;19.65;15.15;;;;;;;;;;5092151;28;20053;-74
2022/06/27 07:47:16;;;;;;;16.55;13.20;;;;;;;;;;5089376;28;20478;-74
2022/06/27 07:49:42;;;;;;;15.48;13.35;;;;;;;;;;5085506;28;20154;-74
2022/06/27 07:52:08;;;;;;;19.67;14.50;;;;;;;;;;5080082;28;20040;-74
2022/06/27 07:54:35;;;;;;;16.92;13.15;;;;;;;;;;5078809;28;20036;-75
2022/06/27 07:57:02;;;;;;;17.67;14.48;;;;;;;;;;5087673;28;20073;-75
2022/06/27 07:59:28;;;;;;;13.80;12.00;;;;;;;;;;5095024;28;20035;-75
2022/06/27 08:01:54;;;;;;;13.48;11.48;;;;;;;;;;5082635;28;20044;-74
2022/06/27 08:04:23;;;;;;;15.45;13.30;;;;;;;;;;5080755;28;20151;-75
2022/06/27 08:06:50;;;;;;;15.00;12.43;;;;;;;;;;5080801;28;20040;-75
2022/06/27 08:09:20;;;;;;;19.48;12.30;;;;;;;;;;5078620;28;20166;-75
2022/06/27 08:11:46;;;;;;;14.25;12.77;;;;;;;;;;5086886;28;20082;-74
2022/06/27 08:14:16;;;;;;;14.10;11.75;;;;;;;;;;5087796;28;20420;-74
2022/06/27 08:16:42;;;;;;;18.67;11.57;;;;;;;;;;5081560;28;20045;-74
2022/06/27 08:19:09;;;;;;;15.15;11.65;;;;;;;;;;5083841;28;20032;-74
2022/06/27 08:21:37;;;;;;;17.40;12.23;;;;;;;;;;5087181;28;20147;-74
2022/06/27 08:24:05;;;;;;;16.50;11.55;;;;;;;;;;5092301;28;20462;-74
2022/06/27 08:26:32;;;;;;;15.13;12.60;;;;;;;;;;5075216;28;20035;-74
2022/06/27 08:28:58;;;;;;;18.83;13.38;;;;;;;;;;5081752;28;20159;-74
2022/06/27 08:31:26;;;;;;;15.40;13.02;;;;;;;;;;5074780;28;20510;-74
2022/06/27 08:33:55;;;;;;;17.13;13.82;;;;;;;;;;5090023;28;20054;-74
2022/06/27 08:36:23;;;;;;;17.02;13.20;;;;;;;;;;5082152;28;20062;-74
2022/06/27 08:38:50;;;;;;;15.52;11.60;;;;;;;;;;5086561;28;20090;-74
2022/06/27 08:41:17;;;;;;;16.35;13.13;;;;;;;;;;5070090;28;20044;-74
2022/06/27 08:43:43;;;;;;;16.33;12.95;;;;;;;;;;5089248;28;20040;-74
2022/06/27 08:46:13;;;;;;;15.07;12.25;;;;;;;;;;5090591;28;20460;-73
2022/06/27 08:48:41;;;;;;;13.60;12.07;;;;;;;;;;5090943;28;20540;-75
2022/06/27 08:51:07;;;;;;;14.25;11.65;;;;;;;;;;5085848;28;20048;-74
2022/06/27 08:53:34;;;;;;;14.35;11.88;;;;;;;;;;5085831;28;20039;-74
2022/06/27 08:56:01;;;;;;;15.00;11.68;;;;;;;;;;5076500;28;20051;-74
2022/06/27 08:58:28;;;;;;;14.93;12.10;;;;;;;;;;5085734;28;20075;-75
2022/06/27 09:00:55;;;;;;;14.00;11.50;;;;;;;;;;5093835;28;20051;-74
2022/06/27 09:03:21;;;;;;;15.48;12.10;;;;;;;;;;5088543;28;20077;-74
2022/06/27 09:06:01;;;;;;;12.52;10.68;;;;;;;;;;5081579;28;20032;-74
2022/06/27 09:08:28;;;;;;;14.93;11.35;;;;;;;;;;5085672;28;20482;-74
2022/06/27 09:10:59;;;;;;;15.02;11.25;;;;;;;;;;5091740;28;20529;-74
2022/06/27 09:13:27;;;;;;;12.73;11.40;;;;;;;;;;5087772;28;20367;-74
2022/06/27 09:15:54;;;;;;;13.90;11.75;;;;;;;;;;5086608;28;20105;-74
2022/06/27 09:18:22;;;;;;;14.18;10.35;;;;;;;;;;5089885;28;20040;-73
2022/06/27 09:20:53;;;;;;;11.80;9.18;;;;;;;;;;5094777;28;20051;-74
2022/06/27 09:23:27;;;;;;;13.70;10.90;;;;;;;;;;5089751;28;20048;-74
2022/06/27 09:25:57;;;;;;;13.90;10.75;;;;;;;;;;5094169;28;20032;-74
2022/06/27 09:28:36;;;;;;;15.93;10.63;;;;;;;;;;5078019;28;20040;-74
2022/06/27 09:31:02;;;;;;;12.00;9.15;;;;;;;;;;5084590;28;20036;-74
2022/06/27 09:33:31;;;;;;;11.15;8.68;;;;;;;;;;5096441;28;20044;-74
2022/06/27 09:35:57;;;;;;;11.05;9.00;;;;;;;;;;5096862;28;20104;-75
2022/06/27 09:38:25;;;;;;;12.23;8.82;;;;;;;;;;5094161;28;20036;-74
2022/06/27 09:40:51;;;;;;;11.27;9.27;;;;;;;;;;5088634;28;20054;-74
2022/06/27 09:43:19;;;;;;;11.98;9.00;;;;;;;;;;5089267;28;20036;-74
2022/06/27 09:45:46;;;;;;;14.60;9.70;;;;;;;;;;5083888;28;20489;-74
2022/06/27 09:48:15;;;;;;;18.15;10.70;;;;;;;;;;5097755;28;20060;-74
2022/06/27 09:50:42;;;;;;;12.93;8.73;;;;;;;;;;5099649;28;20050;-75
2022/06/27 09:53:09;;;;;;;10.63;9.32;;;;;;;;;;5083247;28;20111;-74
2022/06/27 09:55:35;;;;;;;9.95;8.52;;;;;;;;;;5085363;28;20448;-74
2022/06/27 09:58:03;;;;;;;14.27;10.48;;;;;;;;;;5091816;28;20631;-74
2022/06/27 10:00:30;;;;;;;11.82;9.13;;;;;;;;;;5065971;28;20040;-74
2022/06/27 10:02:58;;;;;;;11.65;8.07;;;;;;;;;;5078737;28;20052;-74
2022/06/27 10:05:24;;;;;;;10.13;9.02;;;;;;;;;;5090928;28;20390;-74
2022/06/27 10:07:57;;;;;;;11.00;9.15;;;;;;;;;;5089589;28;20040;-74
2022/06/27 10:10:24;;;;;;;14.73;8.25;;;;;;;;;;5091957;28;20043;-74
2022/06/27 10:13:01;;;;;;;12.18;8.18;;;;;;;;;;5084631;28;20095;-74
2022/06/27 10:15:28;;;;;;;11.02;9.27;;;;;;;;;;5093473;28;20040;-74
2022/06/27 10:17:55;;;;;;;13.00;8.85;;;;;;;;;;5082208;28;20036;-74
2022/06/27 10:20:29;;;;;;;8.45;7.32;;;;;;;;;;5077651;28;20492;-74
2022/06/27 10:23:04;;;;;;;12.18;8.18;;;;;;;;;;5082939;28;20044;-74
2022/06/27 10:25:30;;;;;;;8.25;6.13;;;;;;;;;;5090193;28;20570;-74
2022/06/27 10:28:09;;;;;;;11.63;7.38;;;;;;;;;;5090916;28;20032;-74
2022/06/27 10:30:39;;;;;;;11.15;7.55;;;;;;;;;;5088855;28;20496;-74
2022/06/27 10:33:26;;;;;;;10.80;7.10;;;;;;;;;;5077375;28;20066;-75
2022/06/27 10:36:11;;;;;;;8.00;6.93;;;;;;;;;;5081469;28;20040;-74
2022/06/27 10:38:40;;;;;;;8.45;7.50;;;;;;;;;;5091831;28;20036;-74
2022/06/27 10:41:09;;;;;;;8.90;6.68;;;;;;;;;;5089232;28;20036;-74
2022/06/27 10:43:54;;;;;;;10.43;7.50;;;;;;;;;;5082885;28;20037;-74
2022/06/27 10:46:20;;;;;;;12.20;6.25;;;;;;;;;;5074521;28;20071;-74
2022/06/27 10:48:48;;;;;;;7.85;5.93;;;;;;;;;;5081587;28;20039;-74
2022/06/27 10:51:26;;;;;;;10.38;5.85;;;;;;;;;;5091100;28;20066;-74
2022/06/27 10:53:52;;;;;;;10.50;5.97;;;;;;;;;;5086716;28;20044;-74
2022/06/27 10:56:37;;;;;;;8.38;5.07;;;;;;;;;;5097389;28;20071;-74
2022/06/27 10:59:27;;;;;;;6.75;4.82;;;;;;;;;;5084298;28;20414;-75
2022/06/27 11:02:00;;;;;;;9.07;6.38;;;;;;;;;;5087152;28;20550;-75
2022/06/27 11:04:30;;;;;;;13.15;6.55;;;;;;;;;;5090654;28;20489;-75
2022/06/27 11:06:59;;;;;;;10.07;6.03;;;;;;;;;;5091423;28;20120;-75
2022/06/27 11:09:38;;;;;;;10.95;6.60;;;;;;;;;;5081178;28;20036;-75
2022/06/27 11:12:05;;;;;;;7.55;4.85;;;;;;;;;;5081764;28;20043;-75
2022/06/27 11:14:31;;;;;;;6.28;5.50;;;;;;;;;;5074443;28;20072;-75
2022/06/27 11:16:57;;;;;;;9.05;6.05;;;;;;;;;;5095302;28;20044;-75
2022/06/27 11:22:21;;;;;;;7.68;5.63;;;;;;;;;;5084177;28;20070;-74
2022/06/27 11:24:51;;;;;;;9.00;5.57;;;;;;;;;;5080706;28;20087;-74
2022/06/27 11:27:17;;;;;;;7.80;5.32;;;;;;;;;;5072198;28;20083;-75
2022/06/27 11:32:33;;;;;;;8.45;4.85;;;;;;;;;;5086515;28;20041;-74
2022/06/27 11:35:00;;;;;;;8.10;6.57;;;;;;;;;;5086522;28;20551;-75
2022/06/27 11:37:29;;;;;;;9.40;6.25;;;;;;;;;;5076909;28;20040;-75
2022/06/27 11:39:59;;;;;;;6.88;5.70;;;;;;;;;;5078816;28;20123;-74
2022/06/27 11:42:33;;;;;;;6.53;5.25;;;;;;;;;;5089152;28;20105;-75
2022/06/27 11:45:04;;;;;;;6.72;4.90;;;;;;;;;;5082460;28;20159;-74
2022/06/27 11:47:30;;;;;;;7.22;5.15;;;;;;;;;;5083073;28;20127;-74
2022/06/27 11:50:03;;;;;;;7.85;5.68;;;;;;;;;;5084664;28;20245;-74
2022/06/27 11:52:35;;;;;;;7.50;5.65;;;;;;;;;;5082765;28;20040;-74
2022/06/27 11:55:08;;;;;;;6.80;5.13;;;;;;;;;;5080527;28;20095;-74
2022/06/27 11:57:34;;;;;;;7.50;4.70;;;;;;;;;;5077681;28;20101;-74
2022/06/27 12:00:02;;;;;;;7.25;5.32;;;;;;;;;;5084697;28;20036;-74
2022/06/27 12:02:33;;;;;;;9.02;5.55;;;;;;;;;;5088431;28;20048;-74
2022/06/27 12:05:18;;;;;;;7.85;4.78;;;;;;;;;;5087854;28;20115;-74
2022/06/27 12:07:55;;;;;;;6.68;4.93;;;;;;;;;;5080844;28;20032;-74
2022/06/27 12:10:41;;;;;;;7.07;5.18;;;;;;;;;;5091687;28;20064;-74
2022/06/27 12:13:17;;;;;;;8.57;5.80;;;;;;;;;;5090058;28;20061;-73
2022/06/27 12:15:45;;;;;;;8.93;5.25;;;;;;;;;;5090434;28;20043;-74
2022/06/27 12:18:15;;;;;;;7.85;4.65;;;;;;;;;;5095769;28;20044;-74
2022/06/27 12:20:43;;;;;;;9.75;6.82;;;;;;;;;;5094248;28;20048;-73
2022/06/27 12:23:09;;;;;;;9.57;6.57;;;;;;;;;;5091226;28;20770;-74
2022/06/27 12:25:35;;;;;;;7.53;5.75;;;;;;;;;;5092511;28;20035;-73
2022/06/27 12:28:05;;;;;;;7.10;5.65;;;;;;;;;;5093988;28;20068;-74
2022/06/27 12:30:32;;;;;;;10.15;6.43;;;;;;;;;;5093457;28;20043;-74
2022/06/27 12:32:58;;;;;;;7.38;5.60;;;;;;;;;;5091055;28;20108;-74
2022/06/27 12:35:24;;;;;;;10.48;6.63;;;;;;;;;;5093904;28;20090;-74
2022/06/27 12:37:50;;;;;;;8.30;6.22;;;;;;;;;;5089668;28;20046;-74
2022/06/27 12:40:17;;;;;;;10.77;6.13;;;;;;;;;;5093264;28;20456;-74
2022/06/27 12:42:44;;;;;;;8.95;6.10;;;;;;;;;;5087771;28;20044;-74
2022/06/27 12:45:10;;;;;;;9.68;5.47;;;;;;;;;;5094434;28;20054;-74
2022/06/27 12:47:36;;;;;;;8.40;5.55;;;;;;;;;;5093179;28;20036;-74
2022/06/27 12:50:02;;;;;;;6.38;5.43;;;;;;;;;;5091640;28;20051;-74
2022/06/27 12:52:28;;;;;;;9.02;6.57;;;;;;;;;;5082991;27;20032;-74
2022/06/27 12:54:54;;;;;;;7.43;5.85;;;;;;;;;;5106476;28;20047;-74
2022/06/27 12:57:21;;;;;;;14.70;6.78;;;;;;;;;;5091373;28;20500;-74
2022/06/27 12:59:47;;;;;;;9.68;6.00;;;;;;;;;;5094569;28;20040;-74
2022/06/27 13:02:16;;;;;;;10.13;5.10;;;;;;;;;;5095855;27;20082;-74
2022/06/27 13:04:42;;;;;;;6.40;5.25;;;;;;;;;;5092726;28;20536;-74
2022/06/27 13:07:08;;;;;;;9.00;6.97;;;;;;;;;;5096651;28;20036;-74
2022/06/27 13:09:34;;;;;;;8.30;5.35;;;;;;;;;;5094424;28;20040;-74
2022/06/27 13:12:00;;;;;;;18.02;6.55;;;;;;;;;;5091933;28;20433;-73
2022/06/27 13:14:27;;;;;;;7.57;5.38;;;;;;;;;;5091876;28;20036;-74
2022/06/27 13:16:54;;;;;;;8.30;6.45;;;;;;;;;;5092232;28;20043;-75
2022/06/27 13:19:20;;;;;;;8.10;5.70;;;;;;;;;;5093521;28;20028;-74
2022/06/27 13:21:46;;;;;;;6.63;5.35;;;;;;;;;;5085646;28;20123;-74
2022/06/27 13:24:13;;;;;;;7.70;4.65;;;;;;;;;;5087613;28;20493;-74
2022/06/27 13:26:39;;;;;;;9.40;5.65;;;;;;;;;;5090107;28;20025;-74
2022/06/27 13:29:05;;;;;;;8.98;5.45;;;;;;;;;;5086767;28;20039;-74
2022/06/27 13:31:31;;;;;;;9.00;5.97;;;;;;;;;;5092162;28;20056;-75
2022/06/27 13:33:57;;;;;;;12.27;6.50;;;;;;;;;;5083398;28;20062;-74
2022/06/27 13:36:24;;;;;;;12.77;6.05;;;;;;;;;;5090617;28;20126;-74
2022/06/27 13:38:50;;;;;;;7.47;5.43;;;;;;;;;;5091978;28;20036;-74
2022/06/27 13:41:16;;;;;;;8.82;5.60;;;;;;;;;;5087150;28;20051;-74
2022/06/27 13:43:43;;;;;;;8.55;5.25;;;;;;;;;;5091874;28;20032;-75
2022/06/27 13:46:09;;;;;;;8.90;4.72;;;;;;;;;;5088877;28;20485;-74
2022/06/27 13:48:35;;;;;;;11.07;6.28;;;;;;;;;;5088973;28;20488;-74
2022/06/27 13:51:01;;;;;;;7.80;5.05;;;;;;;;;;5090615;28;20120;-75
2022/06/27 13:53:27;;;;;;;7.75;5.18;;;;;;;;;;5084620;28;20394;-75
2022/06/27 13:55:53;;;;;;;7.15;4.78;;;;;;;;;;5088591;28;20075;-75
2022/06/27 13:58:20;;;;;;;9.40;5.53;;;;;;;;;;5084378;28;20127;-75
2022/06/27 14:00:46;;;;;;;8.60;5.45;;;;;;;;;;5091343;28;20098;-74
2022/06/27 14:03:12;;;;;;;8.15;5.03;;;;;;;;;;5092750;27;20052;-75
2022/06/27 14:05:41;;;;;;;7.60;3.90;;;;;;;;;;5087249;28;20040;-74
2022/06/27 14:08:07;;;;;;;4.90;3.83;;;;;;;;;;5088317;28;20037;-75
2022/06/27 14:10:33;;;;;;;7.90;5.13;;;;;;;;;;5088968;28;20046;-75
2022/06/27 14:12:59;;;;;;;6.07;4.68;;;;;;;;;;5092001;28;20075;-75
2022/06/27 14:15:25;;;;;;;5.32;3.92;;;;;;;;;;5091463;28;20075;-75
2022/06/27 14:17:52;;;;;;;7.80;4.30;;;;;;;;;;5094930;28;20082;-74
2022/06/27 14:20:19;;;;;;;8.60;4.72;;;;;;;;;;5086448;28;20044;-75
2022/06/27 14:22:45;;;;;;;8.70;5.45;;;;;;;;;;5093683;28;20079;-75
2022/06/27 14:25:12;;;;;;;5.20;4.03;;;;;;;;;;5090045;28;20102;-75
2022/06/27 14:27:38;;;;;;;9.48;4.45;;;;;;;;;;5092291;28;20046;-75
2022/06/27 14:30:05;;;;;;;9.15;4.18;;;;;;;;;;5084996;28;20047;-74
2022/06/27 14:32:31;;;;;;;6.28;4.13;;;;;;;;;;5083777;28;20043;-75
2022/06/27 14:34:57;;;;;;;5.85;3.97;;;;;;;;;;5078439;28;20429;-75
2022/06/27 14:37:24;;;;;;;7.05;3.88;;;;;;;;;;5086242;28;20047;-75
2022/06/27 14:39:50;;;;;;;5.88;4.15;;;;;;;;;;5087949;28;20429;-75
2022/06/27 14:42:17;;;;;;;9.35;4.38;;;;;;;;;;5086841;28;20048;-75
2022/06/27 14:44:43;;;;;;;8.85;5.18;;;;;;;;;;5079246;28;20033;-72